Time;durP1;ratioP1;P1;durP2;ratioP2;P2;SDS_P1;SDS_P2;PMS_P1;PMS_P2;Temp;Humidity;BMP_temperature;BMP_pressure;BME280_temperature;BME280_humidity;BME280_pressure;Samples;Min_cycle;Max_cycle;Signal;HPM_P1;HPM_P2
2023/06/13 00:03:13;;;;;;;;;;;13.80;99.90;;;;;;8322446;28;20325;-79
2023/06/13 00:07:13;;;;;;;;;;;13.70;99.90;;;;;;8352955;28;20358;-78
2023/06/13 00:11:14;;;;;;;;;;;13.50;99.90;;;;;;8326227;28;19916;-78
2023/06/13 00:15:15;;;;;;;;;;;13.60;99.90;;;;;;8329640;28;19909;-78
2023/06/13 00:19:17;;;;;;;;;;;13.70;99.90;;;;;;8359719;28;20361;-78
2023/06/13 00:23:17;;;;;;;;;;;13.70;99.90;;;;;;8319231;28;19921;-79
2023/06/13 00:27:18;;;;;;;;;;;13.70;99.90;;;;;;8356175;28;19917;-79
2023/06/13 00:31:19;;;;;;;;;;;13.60;99.90;;;;;;8330957;28;19913;-79
2023/06/13 00:35:19;;;;;;;;;;;13.40;99.90;;;;;;8330752;28;19909;-80
2023/06/13 00:39:20;;;;;;;;;;;13.00;99.90;;;;;;8331965;28;20401;-79
2023/06/13 00:43:20;;;;;;;;;;;13.10;99.90;;;;;;8330132;28;20317;-79
2023/06/13 00:47:22;;;;;;;;;;;13.30;99.90;;;;;;8323730;28;19956;-79
2023/06/13 00:51:23;;;;;;;;;;;13.30;99.90;;;;;;8348483;28;19909;-78
2023/06/13 00:55:25;;;;;;;;;;;13.40;99.90;;;;;;8327002;28;20443;-80
2023/06/13 00:59:26;;;;;;;;;;;13.10;99.90;;;;;;8319113;28;20459;-80
2023/06/13 01:03:29;;;;;;;;;;;13.40;99.90;;;;;;8338439;28;19966;-79
2023/06/13 01:07:32;;;;;;;;;;;13.30;99.90;;;;;;8352270;28;19917;-79
2023/06/13 01:11:39;;;;;;;;;;;13.30;99.90;;;;;;8321509;28;19916;-79
2023/06/13 01:15:46;;;;;;;;;;;13.20;99.90;;;;;;8343296;28;19916;-79
2023/06/13 01:19:50;;;;;;;;;;;13.20;99.90;;;;;;8326281;28;19924;-79
2023/06/13 01:23:53;;;;;;;;;;;13.00;99.90;;;;;;8353845;28;19913;-79
2023/06/13 01:27:55;;;;;;;;;;;12.90;99.90;;;;;;8331528;28;19971;-80
2023/06/13 01:31:56;;;;;;;;;;;12.70;99.90;;;;;;8333765;28;19913;-79
2023/06/13 01:35:57;;;;;;;;;;;12.70;99.90;;;;;;8337916;28;19936;-79
2023/06/13 01:39:57;;;;;;;;;;;12.60;99.90;;;;;;8338112;28;19913;-80
2023/06/13 01:43:58;;;;;;;;;;;12.60;99.90;;;;;;8329757;28;19915;-78
2023/06/13 01:48:12;;;;;;;;;;;12.70;99.90;;;;;;8319836;28;20361;-80
2023/06/13 01:52:20;;;;;;;;;;;12.60;99.90;;;;;;8347232;28;20275;-79
2023/06/13 01:56:22;;;;;;;;;;;12.60;99.90;;;;;;8317223;28;19909;-79
2023/06/13 02:00:23;;;;;;;;;;;12.70;99.90;;;;;;8343019;28;19917;-79
2023/06/13 02:04:23;;;;;;;;;;;12.50;99.90;;;;;;8345015;28;19916;-79
2023/06/13 02:08:24;;;;;;;;;;;12.50;99.90;;;;;;8328055;28;19913;-78
2023/06/13 02:12:24;;;;;;;;;;;12.50;99.90;;;;;;8338551;28;19963;-79
2023/06/13 02:16:29;;;;;;;;;;;12.50;99.90;;;;;;8339895;28;20002;-79
2023/06/13 02:20:29;;;;;;;;;;;12.50;99.90;;;;;;8349198;28;19919;-79
2023/06/13 02:24:29;;;;;;;;;;;12.50;99.90;;;;;;8334697;28;20307;-78
2023/06/13 02:28:30;;;;;;;;;;;12.50;99.90;;;;;;8324026;28;19939;-78
2023/06/13 02:32:30;;;;;;;;;;;12.40;99.90;;;;;;8321219;28;19917;-79
2023/06/13 02:36:31;;;;;;;;;;;12.30;99.90;;;;;;8332150;28;20100;-79
2023/06/13 02:40:31;;;;;;;;;;;12.30;99.90;;;;;;8346940;28;19939;-79
2023/06/13 02:44:32;;;;;;;;;;;12.20;99.90;;;;;;8341209;28;19909;-79
2023/06/13 02:48:32;;;;;;;;;;;12.30;99.90;;;;;;8326486;28;19913;-79
2023/06/13 02:52:33;;;;;;;;;;;12.10;99.90;;;;;;8345656;28;19990;-79
2023/06/13 02:56:36;;;;;;;;;;;11.90;99.90;;;;;;8315888;28;19909;-79
2023/06/13 03:00:36;;;;;;;;;;;11.50;99.90;;;;;;8339116;28;19959;-79
2023/06/13 03:04:37;;;;;;;;;;;11.40;99.90;;;;;;8329443;28;19916;-79
2023/06/13 03:08:37;;;;;;;;;;;11.10;99.90;;;;;;8336567;28;19913;-80
2023/06/13 03:12:38;;;;;;;;;;;10.80;99.90;;;;;;8329504;28;19909;-80
2023/06/13 03:16:40;;;;;;;;;;;10.70;99.90;;;;;;8339558;28;19909;-79
2023/06/13 03:20:45;;;;;;;;;;;10.60;99.90;;;;;;8321564;28;19917;-79
2023/06/13 03:24:46;;;;;;;;;;;10.60;99.90;;;;;;8336048;28;19928;-79
2023/06/13 03:28:47;;;;;;;;;;;10.60;99.90;;;;;;8334950;28;19920;-79
2023/06/13 03:32:47;;;;;;;;;;;10.50;99.90;;;;;;8332586;28;19910;-79
2023/06/13 03:36:47;;;;;;;;;;;10.60;99.90;;;;;;8335961;28;19929;-79
2023/06/13 03:40:48;;;;;;;;;;;10.60;99.90;;;;;;8319838;28;19916;-78
2023/06/13 03:44:49;;;;;;;;;;;10.90;99.90;;;;;;8325283;28;19916;-79
2023/06/13 03:48:51;;;;;;;;;;;11.20;99.90;;;;;;8351001;28;19909;-78
2023/06/13 03:52:51;;;;;;;;;;;11.70;99.90;;;;;;8314585;28;20446;-78
2023/06/13 03:56:51;;;;;;;;;;;11.80;99.90;;;;;;8320163;28;19909;-79
2023/06/13 04:00:54;;;;;;;;;;;12.10;99.90;;;;;;8320749;28;19965;-78
2023/06/13 04:04:56;;;;;;;;;;;12.40;99.90;;;;;;8320231;28;20259;-80
2023/06/13 04:08:57;;;;;;;;;;;12.70;99.90;;;;;;8327590;28;19939;-79
2023/06/13 04:12:57;;;;;;;;;;;13.00;99.90;;;;;;8352485;28;20460;-79
2023/06/13 04:16:59;;;;;;;;;;;13.20;99.90;;;;;;8335097;28;19917;-79
2023/06/13 04:21:00;;;;;;;;;;;13.80;99.90;;;;;;8331290;28;20451;-80
2023/06/13 04:25:00;;;;;;;;;;;14.20;99.90;;;;;;8345975;28;19921;-79
2023/06/13 04:29:02;;;;;;;;;;;14.20;99.90;;;;;;8340352;28;20374;-80
2023/06/13 04:33:06;;;;;;;;;;;14.80;99.90;;;;;;8329405;28;19917;-81
2023/06/13 04:37:06;;;;;;;;;;;15.20;99.90;;;;;;8345647;28;19999;-78
2023/06/13 04:41:13;;;;;;;;;;;15.50;99.90;;;;;;8346806;28;19955;-79
2023/06/13 04:45:15;;;;;;;;;;;15.50;99.90;;;;;;8346766;28;19913;-80
2023/06/13 04:49:16;;;;;;;;;;;15.50;99.90;;;;;;8329461;28;19913;-79
2023/06/13 04:53:21;;;;;;;;;;;15.50;99.90;;;;;;8349198;28;19921;-78
2023/06/13 04:57:21;;;;;;;;;;;15.80;99.90;;;;;;8327117;28;19952;-79
2023/06/13 05:01:26;;;;;;;;;;;16.00;99.90;;;;;;8331816;28;19951;-78
2023/06/13 05:05:27;;;;;;;;;;;16.60;99.90;;;;;;8351938;28;19913;-79
2023/06/13 05:09:27;;;;;;;;;;;16.50;99.90;;;;;;8330090;28;19913;-78
2023/06/13 05:13:28;;;;;;;;;;;16.40;99.90;;;;;;8345128;28;19920;-79
2023/06/13 05:17:29;;;;;;;;;;;16.90;99.90;;;;;;8341968;28;20373;-80
2023/06/13 05:21:31;;;;;;;;;;;17.10;99.90;;;;;;8339552;28;19956;-81
2023/06/13 05:25:31;;;;;;;;;;;17.40;98.40;;;;;;8317316;28;20315;-79
2023/06/13 05:29:31;;;;;;;;;;;17.80;97.80;;;;;;8325965;28;19909;-78
2023/06/13 05:33:33;;;;;;;;;;;18.00;97.20;;;;;;8329541;28;19974;-78
2023/06/13 05:37:36;;;;;;;;;;;18.20;96.50;;;;;;8328442;28;19955;-78
2023/06/13 05:41:36;;;;;;;;;;;18.00;96.60;;;;;;8323851;28;19943;-79
2023/06/13 05:45:37;;;;;;;;;;;18.80;96.20;;;;;;8316452;28;19913;-81
2023/06/13 05:49:37;;;;;;;;;;;18.80;94.70;;;;;;8347804;28;19916;-79
2023/06/13 05:53:38;;;;;;;;;;;19.10;95.90;;;;;;8329674;28;20291;-80
2023/06/13 05:57:42;;;;;;;;;;;19.20;94.60;;;;;;8330192;28;19959;-81
2023/06/13 06:01:43;;;;;;;;;;;18.80;95.00;;;;;;8327040;28;19970;-81
2023/06/13 06:05:44;;;;;;;;;;;19.20;93.50;;;;;;8328435;28;19920;-81
2023/06/13 06:09:44;;;;;;;;;;;20.00;93.00;;;;;;8340946;28;20620;-81
2023/06/13 06:13:45;;;;;;;;;;;18.90;93.10;;;;;;8324192;28;20554;-80
2023/06/13 06:17:45;;;;;;;;;;;19.30;93.40;;;;;;8343521;28;19909;-80
2023/06/13 06:21:46;;;;;;;;;;;18.70;93.90;;;;;;8336398;28;20003;-81
2023/06/13 06:25:46;;;;;;;;;;;19.50;94.50;;;;;;8320510;28;19975;-79
2023/06/13 06:29:46;;;;;;;;;;;19.70;92.20;;;;;;8321486;28;20399;-79
2023/06/13 06:33:47;;;;;;;;;;;20.20;91.60;;;;;;8332985;28;19913;-78
2023/06/13 06:37:47;;;;;;;;;;;20.60;89.70;;;;;;8346141;28;19909;-79
2023/06/13 06:41:48;;;;;;;;;;;21.20;90.80;;;;;;8335160;28;19921;-79
2023/06/13 06:45:48;;;;;;;;;;;20.80;89.10;;;;;;8327908;28;19909;-79
2023/06/13 06:49:49;;;;;;;;;;;20.10;91.30;;;;;;8339539;28;19916;-79
2023/06/13 06:53:50;;;;;;;;;;;20.70;90.50;;;;;;8355477;28;19925;-78
2023/06/13 06:57:53;;;;;;;;;;;21.30;88.30;;;;;;8357278;28;19917;-78
2023/06/13 07:01:53;;;;;;;;;;;20.90;88.00;;;;;;8355882;28;19909;-79
2023/06/13 07:05:54;;;;;;;;;;;21.60;86.50;;;;;;8342040;28;19924;-77
2023/06/13 07:09:55;;;;;;;;;;;21.80;86.50;;;;;;8337734;28;19921;-79
2023/06/13 07:13:56;;;;;;;;;;;21.90;85.80;;;;;;8338587;28;19962;-78
2023/06/13 07:17:56;;;;;;;;;;;21.80;86.40;;;;;;8331974;28;19913;-79
2023/06/13 07:21:57;;;;;;;;;;;21.90;82.70;;;;;;8337144;28;19926;-77
2023/06/13 07:25:57;;;;;;;;;;;22.00;82.90;;;;;;8340058;28;19917;-78
2023/06/13 07:29:58;;;;;;;;;;;22.50;83.20;;;;;;8337193;28;19929;-79
2023/06/13 07:33:58;;;;;;;;;;;21.70;81.90;;;;;;8348798;28;19968;-78
2023/06/13 07:37:59;;;;;;;;;;;21.80;82.60;;;;;;8333706;28;20370;-79
2023/06/13 07:41:59;;;;;;;;;;;21.40;81.10;;;;;;8332171;28;19913;-79
2023/06/13 07:46:00;;;;;;;;;;;21.70;82.10;;;;;;8334994;28;19913;-79
2023/06/13 07:50:01;;;;;;;;;;;21.40;83.50;;;;;;8334600;28;19919;-79
2023/06/13 07:54:01;;;;;;;;;;;21.50;81.10;;;;;;8329050;28;19921;-78
2023/06/13 07:58:02;;;;;;;;;;;21.20;81.10;;;;;;8332255;28;20377;-78
2023/06/13 08:02:02;;;;;;;;;;;21.30;84.90;;;;;;8334850;28;20390;-79
2023/06/13 08:06:03;;;;;;;;;;;21.30;81.10;;;;;;8323363;28;19909;-79
2023/06/13 08:10:04;;;;;;;;;;;21.60;81.70;;;;;;8347682;28;20531;-79
2023/06/13 08:14:07;;;;;;;;;;;21.30;77.60;;;;;;8333794;28;20003;-80
2023/06/13 08:18:07;;;;;;;;;;;21.80;77.80;;;;;;8350967;28;19994;-78
2023/06/13 08:22:08;;;;;;;;;;;21.60;75.80;;;;;;8335311;28;20378;-80
2023/06/13 08:26:08;;;;;;;;;;;21.50;78.70;;;;;;8337687;28;19958;-81
2023/06/13 08:30:09;;;;;;;;;;;22.70;76.10;;;;;;8333105;28;19909;-81
2023/06/13 08:34:09;;;;;;;;;;;22.10;74.10;;;;;;8333622;28;19920;-81
2023/06/13 08:38:11;;;;;;;;;;;21.90;75.40;;;;;;8329036;28;19943;-82
2023/06/13 08:42:12;;;;;;;;;;;22.70;72.40;;;;;;8334210;28;19909;-82
2023/06/13 08:46:12;;;;;;;;;;;23.10;70.30;;;;;;8351408;28;20311;-82
2023/06/13 08:50:18;;;;;;;;;;;22.40;70.30;;;;;;8320526;28;19917;-82
2023/06/13 08:54:19;;;;;;;;;;;22.20;72.40;;;;;;8342743;28;20487;-82
2023/06/13 08:58:21;;;;;;;;;;;22.90;71.80;;;;;;8341638;28;19909;-81
2023/06/13 09:02:23;;;;;;;;;;;23.10;68.60;;;;;;8344715;28;19980;-82
2023/06/13 09:06:24;;;;;;;;;;;23.50;64.80;;;;;;8319152;28;19912;-81
2023/06/13 09:10:24;;;;;;;;;;;23.70;66.50;;;;;;8332666;28;20352;-80
2023/06/13 09:14:25;;;;;;;;;;;23.70;65.20;;;;;;8340472;28;19909;-82
2023/06/13 09:18:26;;;;;;;;;;;24.20;62.00;;;;;;8348015;28;19920;-82
2023/06/13 09:22:26;;;;;;;;;;;23.50;63.10;;;;;;8337553;28;20012;-82
2023/06/13 09:26:27;;;;;;;;;;;22.70;65.30;;;;;;8324482;28;19920;-77
2023/06/13 09:30:27;;;;;;;;;;;22.60;64.60;;;;;;8349565;28;19912;-78
2023/06/13 09:34:28;;;;;;;;;;;22.60;64.70;;;;;;8325575;28;20288;-77
2023/06/13 09:38:29;;;;;;;;;;;23.30;66.00;;;;;;8325464;28;19909;-78
2023/06/13 09:42:30;;;;;;;;;;;23.20;66.10;;;;;;8324881;28;19917;-78
2023/06/13 09:46:35;;;;;;;;;;;23.20;61.20;;;;;;8319260;28;19921;-78
2023/06/13 09:50:36;;;;;;;;;;;23.10;62.30;;;;;;8332135;28;19998;-78
2023/06/13 09:54:37;;;;;;;;;;;22.70;61.10;;;;;;8344899;28;19917;-78
2023/06/13 09:58:38;;;;;;;;;;;23.00;60.40;;;;;;8333367;28;19908;-78
2023/06/13 10:02:38;;;;;;;;;;;24.00;66.30;;;;;;8328495;28;19934;-78
2023/06/13 10:06:39;;;;;;;;;;;23.30;58.60;;;;;;8343863;28;19909;-77
2023/06/13 10:10:40;;;;;;;;;;;22.80;58.50;;;;;;8350626;28;19916;-78
2023/06/13 10:14:41;;;;;;;;;;;22.90;60.10;;;;;;8340470;28;19909;-77
2023/06/13 10:18:44;;;;;;;;;;;23.10;59.80;;;;;;8322156;28;19916;-78
2023/06/13 10:22:44;;;;;;;;;;;23.20;58.30;;;;;;8333170;28;20403;-78
2023/06/13 10:26:46;;;;;;;;;;;23.40;61.60;;;;;;8333058;28;19921;-77
2023/06/13 10:31:11;;;;;;;;;;;24.10;56.00;;;;;;8332567;28;19913;-78
2023/06/13 10:35:35;;;;;;;;;;;23.80;58.50;;;;;;8322268;28;20077;-78
2023/06/13 10:39:55;;;;;;;;;;;23.60;57.70;;;;;;8319948;28;19913;-79
2023/06/13 10:44:08;;;;;;;;;;;24.10;56.30;;;;;;8331843;28;19970;-77
2023/06/13 10:48:09;;;;;;;;;;;24.00;56.00;;;;;;8348696;28;19999;-77
2023/06/13 10:52:10;;;;;;;;;;;24.40;56.40;;;;;;8327506;28;19924;-78
2023/06/13 10:56:12;;;;;;;;;;;24.00;56.60;;;;;;8327348;28;20007;-79
2023/06/13 11:00:21;;;;;;;;;;;24.60;55.10;;;;;;8332403;28;20327;-78
2023/06/13 11:04:23;;;;;;;;;;;25.60;51.50;;;;;;8320478;28;19920;-78
2023/06/13 11:08:24;;;;;;;;;;;26.30;52.60;;;;;;8349467;28;19928;-78
2023/06/13 11:12:25;;;;;;;;;;;26.80;51.60;;;;;;8350408;28;19913;-77
2023/06/13 11:16:36;;;;;;;;;;;25.70;49.90;;;;;;8318660;28;20074;-78
2023/06/13 11:20:46;;;;;;;;;;;25.70;51.60;;;;;;8343405;28;20054;-79
2023/06/13 11:24:47;;;;;;;;;;;25.70;51.00;;;;;;8344078;28;19924;-78
2023/06/13 11:28:51;;;;;;;;;;;26.40;49.40;;;;;;8338982;28;19952;-78
2023/06/13 11:32:52;;;;;;;;;;;27.30;47.20;;;;;;8353622;28;19963;-78
2023/06/13 11:36:57;;;;;;;;;;;27.80;45.70;;;;;;8337203;28;19913;-78
2023/06/13 11:40:57;;;;;;;;;;;28.10;43.20;;;;;;8334426;28;19948;-79
2023/06/13 11:44:58;;;;;;;;;;;27.80;42.50;;;;;;8350994;28;19909;-79
2023/06/13 11:48:58;;;;;;;;;;;28.20;44.40;;;;;;8335084;28;19909;-78
2023/06/13 11:53:06;;;;;;;;;;;28.60;43.30;;;;;;8351409;28;19917;-78
2023/06/13 11:57:07;;;;;;;;;;;29.00;44.50;;;;;;8331871;28;19909;-79
2023/06/13 12:01:07;;;;;;;;;;;27.20;43.90;;;;;;8336872;28;20412;-78
2023/06/13 12:05:11;;;;;;;;;;;27.30;47.30;;;;;;8325497;28;19909;-78
2023/06/13 12:09:14;;;;;;;;;;;27.30;47.40;;;;;;8354405;28;20326;-78
2023/06/13 12:13:16;;;;;;;;;;;26.80;47.90;;;;;;8334238;28;19917;-78
2023/06/13 12:17:16;;;;;;;;;;;27.60;48.70;;;;;;8355580;28;19915;-77
2023/06/13 12:21:17;;;;;;;;;;;27.10;44.50;;;;;;8338363;28;19917;-78
2023/06/13 12:25:17;;;;;;;;;;;28.20;47.50;;;;;;8330602;28;19948;-79
2023/06/13 12:29:23;;;;;;;;;;;27.50;44.40;;;;;;8353740;28;20015;-78
2023/06/13 12:33:27;;;;;;;;;;;28.90;42.30;;;;;;8335519;28;19962;-78
2023/06/13 12:37:32;;;;;;;;;;;28.20;43.70;;;;;;8348497;28;19909;-77
2023/06/13 12:41:33;;;;;;;;;;;28.00;43.00;;;;;;8352774;28;20055;-78
2023/06/13 12:45:33;;;;;;;;;;;26.70;44.60;;;;;;8352156;28;19909;-78
2023/06/13 12:49:37;;;;;;;;;;;26.80;42.50;;;;;;8334597;28;19963;-78
2023/06/13 12:53:38;;;;;;;;;;;27.90;41.30;;;;;;8336507;28;19949;-78
2023/06/13 12:57:39;;;;;;;;;;;29.00;40.70;;;;;;8336694;28;19908;-78
2023/06/13 13:01:40;;;;;;;;;;;29.00;40.20;;;;;;8353175;28;20008;-78
2023/06/13 13:05:41;;;;;;;;;;;29.90;39.70;;;;;;8323014;28;19909;-78
2023/06/13 13:09:43;;;;;;;;;;;29.60;38.80;;;;;;8334293;28;19912;-78
2023/06/13 13:13:45;;;;;;;;;;;30.30;40.20;;;;;;8345567;28;19923;-78
2023/06/13 13:17:46;;;;;;;;;;;30.80;35.00;;;;;;8328473;28;20430;-77
2023/06/13 13:21:47;;;;;;;;;;;29.50;36.30;;;;;;8334437;28;19913;-78
2023/06/13 13:25:47;;;;;;;;;;;28.60;39.20;;;;;;8333880;28;19913;-79
2023/06/13 13:29:48;;;;;;;;;;;28.00;40.10;;;;;;8332307;28;19913;-79
2023/06/13 13:33:48;;;;;;;;;;;28.40;40.10;;;;;;8333143;28;20397;-78
2023/06/13 13:37:51;;;;;;;;;;;29.10;40.60;;;;;;8328616;28;19917;-79
2023/06/13 13:41:52;;;;;;;;;;;30.10;38.50;;;;;;8344803;28;20363;-79
2023/06/13 13:45:52;;;;;;;;;;;30.30;37.50;;;;;;8328205;28;19909;-78
2023/06/13 13:49:53;;;;;;;;;;;31.00;36.20;;;;;;8350958;28;20362;-78
2023/06/13 13:53:54;;;;;;;;;;;30.50;37.80;;;;;;8351212;28;19917;-78
2023/06/13 13:57:54;;;;;;;;;;;29.70;34.80;;;;;;8333154;28;19920;-78
2023/06/13 14:01:55;;;;;;;;;;;30.10;33.20;;;;;;8334005;28;20129;-78
2023/06/13 14:05:55;;;;;;;;;;;29.80;37.20;;;;;;8321856;28;19916;-79
2023/06/13 14:09:56;;;;;;;;;;;31.20;33.60;;;;;;8331716;28;20065;-78
2023/06/13 14:13:58;;;;;;;;;;;32.00;33.60;;;;;;8328909;28;19955;-79
2023/06/13 14:17:59;;;;;;;;;;;32.70;33.80;;;;;;8325376;28;19942;-79
2023/06/13 14:22:00;;;;;;;;;;;33.30;31.30;;;;;;8351838;28;19924;-79
2023/06/13 14:26:01;;;;;;;;;;;34.30;32.90;;;;;;8330526;28;19948;-78
2023/06/13 14:30:01;;;;;;;;;;;31.20;33.60;;;;;;8331342;28;19940;-78
2023/06/13 14:34:02;;;;;;;;;;;31.00;35.30;;;;;;8329812;28;20309;-78
2023/06/13 14:38:02;;;;;;;;;;;29.40;37.40;;;;;;8345960;28;20361;-79
2023/06/13 14:42:03;;;;;;;;;;;29.90;36.80;;;;;;8345149;28;20301;-79
2023/06/13 14:46:08;;;;;;;;;;;30.10;38.80;;;;;;8331961;28;19917;-78
2023/06/13 14:50:09;;;;;;;;;;;31.10;36.00;;;;;;8327451;28;19920;-77
2023/06/13 14:54:11;;;;;;;;;;;29.10;36.90;;;;;;8329431;28;19924;-78
2023/06/13 14:58:11;;;;;;;;;;;29.20;39.10;;;;;;8340681;28;19958;-78
2023/06/13 15:02:12;;;;;;;;;;;29.30;39.40;;;;;;8324469;28;19924;-79
2023/06/13 15:06:12;;;;;;;;;;;31.10;37.40;;;;;;8339639;28;20008;-78
2023/06/13 15:10:13;;;;;;;;;;;32.50;35.20;;;;;;8348179;28;19975;-77
2023/06/13 15:14:13;;;;;;;;;;;31.00;36.00;;;;;;8344804;28;20509;-77
2023/06/13 15:18:14;;;;;;;;;;;28.70;37.70;;;;;;8337184;28;19913;-79
2023/06/13 15:22:14;;;;;;;;;;;29.10;38.30;;;;;;8352118;28;20562;-78
2023/06/13 15:26:15;;;;;;;;;;;30.40;37.10;;;;;;8352047;28;19925;-78
2023/06/13 15:30:15;;;;;;;;;;;29.90;37.10;;;;;;8356183;28;19916;-77
2023/06/13 15:34:16;;;;;;;;;;;27.90;39.10;;;;;;8350157;28;19916;-78
2023/06/13 15:38:17;;;;;;;;;;;27.80;38.40;;;;;;8328736;28;20278;-78
2023/06/13 15:42:18;;;;;;;;;;;27.20;38.70;;;;;;8351199;28;19921;-77
2023/06/13 15:46:20;;;;;;;;;;;26.70;40.40;;;;;;8336295;28;20423;-78
2023/06/13 15:50:20;;;;;;;;;;;25.90;42.20;;;;;;8344752;28;19913;-78
2023/06/13 15:54:21;;;;;;;;;;;25.00;44.10;;;;;;8330531;28;20409;-78
2023/06/13 15:58:21;;;;;;;;;;;24.10;46.20;;;;;;8331309;28;20710;-77
2023/06/13 16:02:22;;;;;;;;;;;24.10;43.60;;;;;;8350378;28;19916;-77
2023/06/13 16:06:22;;;;;;;;;;;23.70;45.40;;;;;;8321254;28;19920;-78
2023/06/13 16:10:23;;;;;;;;;;;23.80;45.50;;;;;;8346319;28;19914;-79
2023/06/13 16:14:24;;;;;;;;;;;23.70;44.00;;;;;;8345769;28;19921;-77
2023/06/13 16:18:24;;;;;;;;;;;23.50;42.80;;;;;;8348039;28;20000;-77
2023/06/13 16:22:25;;;;;;;;;;;23.40;44.70;;;;;;8346805;28;19932;-77
2023/06/13 16:26:26;;;;;;;;;;;23.30;43.70;;;;;;8333013;28;19913;-79
2023/06/13 16:30:27;;;;;;;;;;;23.20;43.50;;;;;;8335067;28;20453;-78
2023/06/13 16:34:27;;;;;;;;;;;23.30;42.70;;;;;;8336394;28;19951;-77
2023/06/13 16:38:28;;;;;;;;;;;23.30;44.50;;;;;;8341928;28;19928;-78
2023/06/13 16:42:28;;;;;;;;;;;23.50;44.90;;;;;;8355256;28;19908;-78
2023/06/13 16:46:29;;;;;;;;;;;23.30;43.40;;;;;;8348715;28;19917;-78
2023/06/13 16:50:29;;;;;;;;;;;23.30;45.50;;;;;;8333106;28;19913;-78
2023/06/13 16:54:30;;;;;;;;;;;23.10;46.10;;;;;;8327915;28;20296;-79
2023/06/13 16:58:31;;;;;;;;;;;22.90;47.40;;;;;;8329090;28;19923;-79
2023/06/13 17:02:31;;;;;;;;;;;22.80;46.20;;;;;;8331076;28;20415;-77
2023/06/13 17:06:31;;;;;;;;;;;22.60;47.70;;;;;;8317578;28;19912;-76
2023/06/13 17:10:32;;;;;;;;;;;22.40;47.60;;;;;;8328754;28;19920;-76
2023/06/13 17:14:32;;;;;;;;;;;22.10;46.80;;;;;;8322932;28;19989;-77
2023/06/13 17:18:33;;;;;;;;;;;22.10;48.30;;;;;;8346366;28;19915;-76
2023/06/13 17:22:33;;;;;;;;;;;21.80;48.00;;;;;;8322046;28;19913;-77
2023/06/13 17:26:34;;;;;;;;;;;21.70;49.00;;;;;;8344185;28;19963;-77
2023/06/13 17:30:34;;;;;;;;;;;21.80;49.10;;;;;;8320869;28;19913;-77
2023/06/13 17:34:35;;;;;;;;;;;21.70;48.00;;;;;;8343674;28;19913;-77
2023/06/13 17:38:38;;;;;;;;;;;21.90;48.10;;;;;;8342688;28;22424;-77
2023/06/13 17:42:39;;;;;;;;;;;21.70;49.70;;;;;;8323410;28;20136;-77
2023/06/13 17:46:39;;;;;;;;;;;21.70;49.70;;;;;;8340148;28;19916;-78
2023/06/13 17:50:40;;;;;;;;;;;21.50;49.90;;;;;;8332165;28;19912;-77
2023/06/13 17:54:40;;;;;;;;;;;21.50;49.30;;;;;;8350020;28;19916;-77
2023/06/13 17:58:41;;;;;;;;;;;21.80;49.10;;;;;;8354092;28;19913;-78
2023/06/13 18:02:42;;;;;;;;;;;21.60;49.50;;;;;;8335547;28;19916;-78
2023/06/13 18:06:42;;;;;;;;;;;21.60;50.00;;;;;;8338446;28;19917;-78
2023/06/13 18:10:43;;;;;;;;;;;21.10;49.70;;;;;;8344129;28;20181;-78
2023/06/13 18:14:43;;;;;;;;;;;21.00;52.40;;;;;;8330315;28;19912;-79
2023/06/13 18:18:44;;;;;;;;;;;20.80;51.20;;;;;;8323890;28;19941;-79
2023/06/13 18:22:45;;;;;;;;;;;20.50;53.00;;;;;;8335937;28;19919;-77
2023/06/13 18:26:46;;;;;;;;;;;20.50;53.20;;;;;;8355314;28;19909;-78
2023/06/13 18:30:46;;;;;;;;;;;20.20;54.40;;;;;;8337658;28;19913;-78
2023/06/13 18:34:47;;;;;;;;;;;20.30;54.70;;;;;;8333967;28;20119;-78
2023/06/13 18:38:47;;;;;;;;;;;20.10;53.80;;;;;;8330946;28;19913;-78
2023/06/13 18:42:48;;;;;;;;;;;19.70;55.30;;;;;;8348462;28;20254;-78
2023/06/13 18:46:48;;;;;;;;;;;19.80;56.30;;;;;;8351887;28;19913;-78
2023/06/13 18:50:49;;;;;;;;;;;19.00;57.00;;;;;;8334651;28;20381;-78
2023/06/13 18:54:50;;;;;;;;;;;18.50;58.00;;;;;;8351888;28;19920;-78
2023/06/13 18:58:52;;;;;;;;;;;18.10;62.70;;;;;;8346433;28;19916;-78
2023/06/13 19:02:55;;;;;;;;;;;17.40;64.20;;;;;;8332830;28;19917;-78
2023/06/13 19:06:56;;;;;;;;;;;17.20;66.20;;;;;;8355224;28;20003;-78
2023/06/13 19:10:56;;;;;;;;;;;16.80;69.00;;;;;;8340743;28;19920;-78
2023/06/13 19:14:57;;;;;;;;;;;16.60;71.50;;;;;;8353779;28;20449;-78
2023/06/13 19:18:58;;;;;;;;;;;16.20;72.70;;;;;;8343542;28;19924;-78
2023/06/13 19:22:58;;;;;;;;;;;16.00;76.10;;;;;;8325721;28;20873;-78
2023/06/13 19:26:58;;;;;;;;;;;15.70;76.40;;;;;;8330484;28;19917;-78
2023/06/13 19:30:59;;;;;;;;;;;15.70;77.70;;;;;;8327666;28;19963;-77
2023/06/13 19:35:00;;;;;;;;;;;14.90;79.20;;;;;;8351093;28;19923;-78
2023/06/13 19:39:01;;;;;;;;;;;15.00;82.40;;;;;;8331555;28;19917;-78
2023/06/13 19:43:01;;;;;;;;;;;14.80;84.60;;;;;;8331830;28;19943;-78
2023/06/13 19:47:02;;;;;;;;;;;14.40;84.50;;;;;;8331121;28;19927;-78
2023/06/13 19:51:02;;;;;;;;;;;14.40;85.10;;;;;;8329918;28;19983;-77
2023/06/13 19:55:03;;;;;;;;;;;14.20;86.80;;;;;;8337040;28;19917;-78
2023/06/13 19:59:05;;;;;;;;;;;13.80;87.30;;;;;;8324185;28;19912;-78
2023/06/13 20:03:05;;;;;;;;;;;13.40;88.90;;;;;;8330379;28;19923;-78
2023/06/13 20:07:06;;;;;;;;;;;13.10;90.80;;;;;;8353993;28;19959;-77
2023/06/13 20:11:07;;;;;;;;;;;13.20;91.50;;;;;;8355285;28;19923;-78
2023/06/13 20:15:08;;;;;;;;;;;13.00;92.90;;;;;;8357951;28;19917;-78
2023/06/13 20:19:09;;;;;;;;;;;12.80;93.80;;;;;;8344502;28;20436;-78
2023/06/13 20:23:10;;;;;;;;;;;12.60;94.00;;;;;;8347068;28;19909;-77
2023/06/13 20:27:11;;;;;;;;;;;12.50;95.00;;;;;;8340112;28;19917;-81
2023/06/13 20:31:11;;;;;;;;;;;12.90;95.20;;;;;;8335511;28;20343;-79
2023/06/13 20:35:12;;;;;;;;;;;12.20;95.70;;;;;;8335516;28;19917;-80
2023/06/13 20:39:14;;;;;;;;;;;12.30;95.20;;;;;;8352696;28;19916;-80
2023/06/13 20:43:14;;;;;;;;;;;12.10;96.00;;;;;;8328495;28;20054;-80
2023/06/13 20:47:18;;;;;;;;;;;12.00;96.90;;;;;;8329745;28;19913;-79
2023/06/13 20:51:19;;;;;;;;;;;11.70;97.70;;;;;;8335634;28;20011;-81
2023/06/13 20:55:20;;;;;;;;;;;11.80;97.90;;;;;;8352771;28;19972;-80
2023/06/13 20:59:20;;;;;;;;;;;11.20;99.40;;;;;;8335169;28;19916;-81
2023/06/13 21:03:22;;;;;;;;;;;11.30;99.90;;;;;;8331554;28;19943;-80
2023/06/13 21:07:22;;;;;;;;;;;11.10;99.90;;;;;;8333985;28;19948;-81
2023/06/13 21:11:23;;;;;;;;;;;11.00;99.90;;;;;;8334055;28;19916;-80
2023/06/13 21:15:24;;;;;;;;;;;11.00;99.90;;;;;;8329948;28;19909;-79
2023/06/13 21:19:24;;;;;;;;;;;10.80;99.90;;;;;;8353476;28;19912;-79
2023/06/13 21:23:25;;;;;;;;;;;10.70;99.90;;;;;;8357675;28;20403;-80
2023/06/13 21:27:26;;;;;;;;;;;10.40;99.90;;;;;;8334638;28;19921;-80
2023/06/13 21:31:26;;;;;;;;;;;10.70;99.90;;;;;;8336657;28;20408;-80
2023/06/13 21:35:27;;;;;;;;;;;10.10;99.90;;;;;;8328203;28;19959;-81
2023/06/13 21:39:27;;;;;;;;;;;10.00;99.90;;;;;;8348473;28;19916;-80
2023/06/13 21:43:28;;;;;;;;;;;10.20;99.90;;;;;;8329715;28;19977;-79
2023/06/13 21:47:29;;;;;;;;;;;10.20;99.90;;;;;;8338957;28;19913;-79
2023/06/13 21:51:30;;;;;;;;;;;10.10;99.90;;;;;;8335931;28;19925;-80
2023/06/13 21:55:31;;;;;;;;;;;10.00;99.90;;;;;;8344237;28;20011;-80
2023/06/13 21:59:31;;;;;;;;;;;9.70;99.90;;;;;;8336218;28;19972;-79
2023/06/13 22:03:32;;;;;;;;;;;9.90;99.90;;;;;;8336177;28;19923;-80
2023/06/13 22:07:32;;;;;;;;;;;9.90;99.90;;;;;;8350277;28;19920;-79
2023/06/13 22:11:33;;;;;;;;;;;9.70;99.90;;;;;;8335557;28;19921;-80
2023/06/13 22:15:33;;;;;;;;;;;9.30;99.90;;;;;;8332202;28;19909;-79
2023/06/13 22:19:34;;;;;;;;;;;9.60;99.90;;;;;;8332194;28;20097;-80
2023/06/13 22:23:34;;;;;;;;;;;9.10;99.90;;;;;;8332953;28;19920;-81
2023/06/13 22:27:35;;;;;;;;;;;9.30;99.90;;;;;;8331269;28;19976;-80
2023/06/13 22:31:35;;;;;;;;;;;9.40;99.90;;;;;;8333734;28;19924;-79
2023/06/13 22:35:36;;;;;;;;;;;9.70;99.90;;;;;;8328676;28;19913;-80
2023/06/13 22:39:36;;;;;;;;;;;9.30;99.90;;;;;;8349078;28;19913;-81
2023/06/13 22:43:36;;;;;;;;;;;9.30;99.90;;;;;;8324020;28;19917;-80
2023/06/13 22:47:37;;;;;;;;;;;9.40;99.90;;;;;;8327149;28;20381;-81
2023/06/13 22:51:39;;;;;;;;;;;9.40;99.90;;;;;;8349836;28;19917;-79
2023/06/13 22:55:39;;;;;;;;;;;9.30;99.90;;;;;;8347991;28;19913;-79
2023/06/13 22:59:40;;;;;;;;;;;9.20;99.90;;;;;;8325540;28;19924;-80
2023/06/13 23:03:40;;;;;;;;;;;8.90;99.90;;;;;;8340510;28;19913;-81
2023/06/13 23:07:41;;;;;;;;;;;8.80;99.90;;;;;;8336185;28;20441;-80
2023/06/13 23:11:41;;;;;;;;;;;9.00;99.90;;;;;;8334622;28;20415;-79
2023/06/13 23:15:42;;;;;;;;;;;8.90;99.90;;;;;;8350293;28;19913;-80
2023/06/13 23:19:52;;;;;;;;;;;8.90;99.90;;;;;;8359856;28;19916;-79
2023/06/13 23:23:53;;;;;;;;;;;8.90;99.90;;;;;;8362249;28;19917;-80
2023/06/13 23:27:55;;;;;;;;;;;8.70;99.90;;;;;;8343288;28;19920;-79